createdAt,value
2019-03-24T00:01:41.148Z,101002.19
2019-03-24T00:04:06.968Z,101007.05
2019-03-24T00:06:37.247Z,101018.09
2019-03-24T00:09:08.402Z,101010.35
2019-03-24T00:11:38.596Z,101007.17
2019-03-24T00:14:08.620Z,101030.55
2019-03-24T00:16:38.600Z,101010.35
2019-03-24T00:19:08.725Z,101023.33
2019-03-24T00:21:38.788Z,101017.57
2019-03-24T00:24:08.841Z,101017.08
2019-03-24T00:26:38.933Z,101018.92
2019-03-24T00:29:08.991Z,101016.60
2019-03-24T00:31:39.115Z,101020.64
2019-03-24T00:34:09.148Z,101026.89
2019-03-24T00:36:39.231Z,101029.58
2019-03-24T00:39:09.574Z,101020.01
2019-03-24T00:41:39.647Z,101027.45
2019-03-24T00:44:09.680Z,101031.88
2019-03-24T00:46:39.672Z,101041.67
2019-03-24T00:49:09.771Z,101041.67
2019-03-24T00:51:39.909Z,101035.77
2019-03-24T00:54:10.042Z,101049.23
2019-03-24T00:56:40.037Z,101045.09
2019-03-24T00:59:10.229Z,101049.98
2019-03-24T01:01:40.278Z,101049.12
2019-03-24T01:04:10.370Z,101044.08
2019-03-24T01:06:40.413Z,101038.69
2019-03-24T01:09:10.724Z,101040.90
2019-03-24T01:11:40.776Z,101031.84
2019-03-24T01:14:10.784Z,101036.22
2019-03-24T01:16:40.806Z,101046.52
2019-03-24T01:19:10.957Z,101053.25
2019-03-24T01:21:41.045Z,101063.92
2019-03-24T01:24:11.114Z,101054.97
2019-03-24T01:26:41.124Z,101056.69
2019-03-24T01:29:11.230Z,101065.12
2019-03-24T01:31:41.298Z,101069.16
2019-03-24T01:34:11.382Z,101067.81
2019-03-24T01:36:41.398Z,101074.55
2019-03-24T01:39:11.480Z,101078.59
2019-03-24T01:41:41.533Z,101079.94
2019-03-24T01:44:11.627Z,101083.64
2019-03-24T01:46:41.724Z,101082.63
2019-03-24T01:49:11.760Z,101083.98
2019-03-24T01:51:41.749Z,101085.33
2019-03-24T01:54:11.782Z,101091.58
2019-03-24T01:56:41.812Z,101084.36
2019-03-24T01:59:11.889Z,101090.23
2019-03-24T02:01:41.881Z,101090.72
2019-03-24T02:04:11.893Z,101091.73
2019-03-24T02:06:41.952Z,101087.80
2019-03-24T02:09:11.931Z,101091.84
2019-03-24T02:11:41.997Z,101102.62
2019-03-24T02:14:12.003Z,101110.22
2019-03-24T02:16:41.998Z,101118.79
2019-03-24T02:21:40.533Z,101124.66
2019-03-24T02:24:10.578Z,101126.88
2019-03-24T02:26:40.558Z,101133.23
2019-03-24T02:29:10.581Z,101139.14
2019-03-24T02:31:40.658Z,101129.34
2019-03-24T02:34:10.839Z,101131.55
2019-03-24T02:36:40.900Z,101141.84
2019-03-24T02:39:10.936Z,101145.36
2019-03-24T02:41:41.009Z,101147.72
2019-03-24T02:44:11.058Z,101149.41
2019-03-24T02:46:41.045Z,101153.96
2019-03-24T02:49:11.184Z,101155.66
2019-03-24T02:51:41.191Z,101156.66
2019-03-24T02:54:11.544Z,101151.27
2019-03-24T02:56:41.622Z,101151.27
2019-03-24T02:59:11.688Z,101154.94
2019-03-24T03:01:41.693Z,101144.53
2019-03-24T03:04:11.766Z,101147.23
2019-03-24T03:06:42.171Z,101149.41
2019-03-24T03:09:12.288Z,101142.67
2019-03-24T03:11:42.381Z,101147.56
2019-03-24T03:14:12.365Z,101159.58
2019-03-24T03:16:42.362Z,101164.97
2019-03-24T03:19:12.372Z,101168.16
2019-03-24T03:21:42.403Z,101163.73
2019-03-24T03:24:12.413Z,101172.20
2019-03-24T03:26:42.412Z,101168.39
2019-03-24T03:29:12.388Z,101172.57
2019-03-24T03:31:42.377Z,101169.88
2019-03-24T03:34:12.430Z,101172.05
2019-03-24T03:36:42.457Z,101180.52
2019-03-24T03:39:12.429Z,101173.78
2019-03-24T03:41:42.416Z,101174.27
2019-03-24T03:44:12.521Z,101179.02
2019-03-24T03:46:52.355Z,101179.02
2019-03-24T03:49:14.341Z,101179.02
2019-03-24T03:51:44.399Z,101180.89
2019-03-24T03:54:14.451Z,101183.06
2019-03-24T03:56:44.522Z,101183.06
2019-03-24T03:59:14.626Z,101177.67
2019-03-24T04:01:44.628Z,101177.67
2019-03-24T04:04:14.665Z,101176.33
2019-03-24T04:06:44.688Z,101183.59
2019-03-24T04:09:14.676Z,101182.72
2019-03-24T04:11:44.648Z,101190.32
2019-03-24T04:14:14.768Z,101196.55
2019-03-24T04:16:44.790Z,101197.89
2019-03-24T04:19:14.937Z,101205.48
2019-03-24T04:21:45.014Z,101208.19
2019-03-24T04:24:15.020Z,101219.34
2019-03-24T04:26:48.322Z,101214.06
2019-03-24T04:29:18.404Z,101217.27
2019-03-24T04:31:48.453Z,101223.63
2019-03-24T04:34:18.453Z,101225.47
2019-03-24T04:36:48.496Z,101213.83
2019-03-24T04:39:18.528Z,101217.52
2019-03-24T04:41:48.540Z,101211.27
2019-03-24T04:44:18.706Z,101215.42
2019-03-24T04:46:48.686Z,101206.52
2019-03-24T04:49:18.682Z,101209.20
2019-03-24T04:51:48.744Z,101214.08
2019-03-24T04:54:18.763Z,101217.77
2019-03-24T04:56:50.801Z,101211.04
2019-03-24T04:59:20.801Z,101215.42
2019-03-24T05:01:50.843Z,101219.47
2019-03-24T05:04:20.886Z,101219.61
2019-03-24T05:06:51.112Z,101223.16
2019-03-24T05:09:21.502Z,101228.07
2019-03-24T05:11:51.539Z,101229.91
2019-03-24T05:14:21.561Z,101236.64
2019-03-24T05:16:51.573Z,101240.69
2019-03-24T05:19:21.564Z,101236.16
2019-03-24T05:21:51.731Z,101228.07
2019-03-24T05:24:21.793Z,101236.50
2019-03-24T05:26:51.861Z,101232.94
2019-03-24T05:29:21.836Z,101231.11
2019-03-24T05:31:51.844Z,101245.82
2019-03-24T05:34:21.868Z,101251.07
2019-03-24T05:36:51.947Z,101248.86
2019-03-24T05:39:21.994Z,101250.58
2019-03-24T05:41:52.043Z,101254.14
2019-03-24T05:44:22.074Z,101231.23
2019-03-24T05:46:52.129Z,101246.40
2019-03-24T05:49:22.103Z,101239.18
2019-03-24T05:51:52.138Z,101237.83
2019-03-24T05:54:22.389Z,101239.55
2019-03-24T05:56:52.466Z,101236.38
2019-03-24T05:59:22.478Z,101250.56
2019-03-24T06:01:52.561Z,101247.39
2019-03-24T06:04:22.565Z,101252.27
2019-03-24T06:06:52.640Z,101253.02
2019-03-24T06:09:22.716Z,101264.52
2019-03-24T06:11:52.721Z,101253.97
2019-03-24T06:14:22.707Z,101258.66
2019-03-24T06:16:52.783Z,101257.39
2019-03-24T06:19:22.870Z,101261.53
2019-03-24T06:21:53.872Z,101265.70
2019-03-24T06:24:23.951Z,101270.20
2019-03-24T06:26:53.955Z,101273.37
2019-03-24T06:29:23.969Z,101268.09
2019-03-24T06:31:53.996Z,101272.72
2019-03-24T06:34:24.070Z,101268.91
2019-03-24T06:36:54.101Z,101264.23
2019-03-24T06:39:26.486Z,101276.83
2019-03-24T06:41:56.497Z,101269.34
2019-03-24T06:44:26.574Z,101267.09
2019-03-24T06:46:56.726Z,101261.53
2019-03-24T06:49:26.856Z,101258.45
2019-03-24T06:51:56.983Z,101269.97
2019-03-24T06:54:27.010Z,101261.01
2019-03-24T06:56:57.000Z,101261.01
2019-03-24T06:59:27.099Z,101255.13
2019-03-24T07:01:57.211Z,101256.84
2019-03-24T07:04:27.396Z,101250.59
2019-03-24T07:06:57.410Z,101258.53
2019-03-24T07:09:27.437Z,101259.17
2019-03-24T07:11:57.486Z,101252.05
2019-03-24T07:14:27.605Z,101245.45
2019-03-24T07:16:57.678Z,101258.45
2019-03-24T07:19:27.692Z,101257.59
2019-03-24T07:21:57.810Z,101255.13
2019-03-24T07:24:27.958Z,101256.06
2019-03-24T07:26:58.062Z,101252.50
2019-03-24T07:29:28.190Z,101255.39
2019-03-24T07:31:58.331Z,101254.00
2019-03-24T07:34:28.495Z,101251.76
2019-03-24T07:36:58.658Z,101249.88
2019-03-24T07:39:28.793Z,101250.70
2019-03-24T07:41:59.345Z,101246.72
2019-03-24T07:44:29.419Z,101245.10
2019-03-24T07:46:59.493Z,101238.91
2019-03-24T07:49:29.633Z,101234.25
2019-03-24T07:51:59.677Z,101227.08
2019-03-24T07:54:29.758Z,101225.95
2019-03-24T07:57:00.045Z,101220.98
2019-03-24T07:59:30.063Z,101218.02
2019-03-24T08:02:00.138Z,101213.81
2019-03-24T08:04:30.297Z,101216.40
2019-03-24T08:07:00.523Z,101222.70
2019-03-24T08:09:30.598Z,101215.79
2019-03-24T08:12:00.675Z,101219.20
2019-03-24T08:14:30.846Z,101218.55
2019-03-24T08:17:00.920Z,101210.82
2019-03-24T08:19:30.940Z,101220.86
2019-03-24T08:22:00.998Z,101212.45
2019-03-24T08:24:31.070Z,101223.36
2019-03-24T08:27:01.203Z,101211.36
2019-03-24T08:29:31.333Z,101221.73
2019-03-24T08:32:01.391Z,101207.61
2019-03-24T08:34:31.585Z,101202.26
2019-03-24T08:37:01.719Z,101201.34
2019-03-24T08:39:31.862Z,101204.74
2019-03-24T08:42:02.469Z,101193.65
2019-03-24T08:44:32.499Z,101195.70
2019-03-24T08:47:08.887Z,101199.76
2019-03-24T08:49:38.906Z,101189.80
2019-03-24T08:52:09.008Z,101177.64
2019-03-24T08:54:39.063Z,101170.02
2019-03-24T08:57:09.114Z,101173.45
2019-03-24T08:59:39.272Z,101182.43
2019-03-24T09:02:09.396Z,101169.61
2019-03-24T09:04:39.611Z,101164.53
2019-03-24T09:07:09.701Z,101164.53
2019-03-24T09:09:39.821Z,101168.59
2019-03-24T09:12:09.907Z,101155.59
2019-03-24T09:14:40.058Z,101155.59
2019-03-24T09:17:10.424Z,101164.05
2019-03-24T09:19:40.514Z,101159.90
2019-03-24T09:22:10.588Z,101168.84
2019-03-24T09:24:59.316Z,101175.47
2019-03-24T09:27:39.542Z,101161.30
2019-03-24T09:30:17.021Z,101162.00
2019-03-24T09:32:47.150Z,101165.57
2019-03-24T09:35:17.204Z,101159.30
2019-03-24T09:37:47.289Z,101156.75
2019-03-24T09:40:20.301Z,101163.80
2019-03-24T09:42:50.381Z,101163.64
2019-03-24T09:45:20.470Z,101157.41
2019-03-24T09:47:50.694Z,101156.75
2019-03-24T09:50:22.316Z,101152.05
2019-03-24T09:52:52.404Z,101154.59
2019-03-24T09:55:22.505Z,101150.05
2019-03-24T09:57:52.539Z,101152.13
2019-03-24T10:00:22.698Z,101142.30
2019-03-24T10:02:54.233Z,101153.48
2019-03-24T10:05:24.278Z,101141.64
2019-03-24T10:07:54.297Z,101143.00
2019-03-24T10:10:24.387Z,101126.28
2019-03-24T10:12:54.429Z,101120.38
2019-03-24T10:15:24.555Z,101128.33
2019-03-24T10:17:54.604Z,101112.75
2019-03-24T10:20:24.683Z,101109.35
2019-03-24T10:22:54.762Z,101105.91
2019-03-24T10:25:24.954Z,101102.88
2019-03-24T10:27:54.988Z,101096.24
2019-03-24T10:30:25.067Z,101093.05
2019-03-24T10:32:55.172Z,101088.50
2019-03-24T10:35:25.235Z,101097.09
2019-03-24T10:37:55.283Z,101090.84
2019-03-24T10:40:28.950Z,101091.36
2019-03-24T10:42:58.129Z,101095.26
2019-03-24T10:45:28.223Z,101106.44
2019-03-24T10:47:58.328Z,101086.36
2019-03-24T10:50:28.394Z,101091.98
2019-03-24T10:52:58.467Z,101077.30
2019-03-24T10:55:28.585Z,101069.03
2019-03-24T10:57:58.649Z,101069.03
2019-03-24T11:00:42.706Z,101073.95
2019-03-24T11:03:14.001Z,101057.72
2019-03-24T11:05:44.162Z,100947.10
2019-03-24T11:08:14.318Z,101061.48
2019-03-24T11:10:44.522Z,101053.38
2019-03-24T11:13:14.598Z,101034.27
2019-03-24T11:15:45.585Z,101035.99
2019-03-24T11:18:15.697Z,101028.73
2019-03-24T11:20:45.736Z,101023.33
2019-03-24T11:23:15.834Z,101022.10
2019-03-24T11:25:45.989Z,101021.77
2019-03-24T11:28:16.073Z,101013.30
2019-03-24T11:30:46.222Z,101007.39
2019-03-24T11:33:16.339Z,101010.75
2019-03-24T11:35:46.376Z,101011.25
2019-03-24T11:38:16.445Z,101009.89
2019-03-24T11:40:46.598Z,100991.62
2019-03-24T11:43:16.879Z,100993.95
2019-03-24T11:45:46.949Z,100991.05
2019-03-24T11:48:17.053Z,100978.02
2019-03-24T11:50:47.369Z,100982.58
2019-03-24T11:53:17.381Z,100978.52
2019-03-24T11:55:47.524Z,100967.70
2019-03-24T11:58:17.630Z,100957.74
2019-03-24T12:00:47.679Z,100950.98
2019-03-24T12:03:17.842Z,100957.61
2019-03-24T12:05:48.100Z,100945.44
2019-03-24T12:11:04.097Z,100922.95
2019-03-24T12:13:34.371Z,100920.91
2019-03-24T12:16:04.602Z,100919.19
2019-03-24T12:18:34.652Z,100915.42
2019-03-24T12:21:04.834Z,100905.95
2019-03-24T12:23:35.059Z,100898.64
2019-03-24T12:28:50.748Z,100894.15
2019-03-24T12:31:20.836Z,100883.86
2019-03-24T12:33:51.674Z,100888.74
2019-03-24T12:36:21.728Z,100877.59
2019-03-24T12:38:51.949Z,100866.58
2019-03-24T12:41:22.083Z,100865.53
2019-03-24T12:43:52.163Z,100866.68
2019-03-24T12:46:22.197Z,100852.11
2019-03-24T12:48:52.349Z,100852.97
2019-03-24T12:51:23.427Z,100839.09
2019-03-24T12:53:53.508Z,100832.69
2019-03-24T12:56:23.623Z,100830.84
2019-03-24T12:58:53.636Z,100833.02
2019-03-24T13:01:23.679Z,100831.34
2019-03-24T13:03:53.847Z,100820.36
2019-03-24T13:06:23.932Z,100814.95
2019-03-24T13:08:54.063Z,100812.75
2019-03-24T13:11:24.139Z,100809.22
2019-03-24T13:13:54.212Z,100802.27
2019-03-24T13:16:24.328Z,100802.76
2019-03-24T13:18:54.340Z,100799.20
2019-03-24T13:21:24.433Z,100793.80
2019-03-24T13:23:54.651Z,100797.48
2019-03-24T13:26:24.763Z,100794.45
2019-03-24T13:28:54.798Z,100787.33
2019-03-24T13:31:24.885Z,100783.77
2019-03-24T13:33:55.011Z,100792.05
2019-03-24T13:36:25.065Z,100787.14
2019-03-24T13:38:55.108Z,100786.58
2019-03-24T13:41:25.213Z,100780.34
2019-03-24T13:43:55.326Z,100768.31
2019-03-24T13:46:25.434Z,100776.42
2019-03-24T13:48:55.474Z,100769.83
2019-03-24T13:51:25.541Z,100765.91
2019-03-24T13:53:55.615Z,100759.81
2019-03-24T13:56:25.664Z,100755.20
2019-03-24T13:58:55.671Z,100759.91
2019-03-24T14:01:25.773Z,100750.92
2019-03-24T14:03:55.886Z,100739.42
2019-03-24T14:06:26.702Z,100751.38
2019-03-24T14:08:56.811Z,100745.61
2019-03-24T14:11:26.908Z,100752.37
2019-03-24T14:13:56.979Z,100745.28
2019-03-24T14:16:27.027Z,100738.16
2019-03-24T14:18:57.206Z,100740.02
2019-03-24T14:21:27.395Z,100730.20
2019-03-24T14:23:57.498Z,100730.72
2019-03-24T14:26:27.660Z,100724.95
2019-03-24T14:28:57.820Z,100719.19
2019-03-24T14:31:27.885Z,100715.67
2019-03-24T14:33:59.806Z,100709.05
2019-03-24T14:36:29.989Z,100704.66
2019-03-24T14:39:00.230Z,100705.16
2019-03-24T14:41:30.409Z,100701.60
2019-03-24T14:44:03.566Z,100689.08
2019-03-24T14:46:33.668Z,100682.49
2019-03-24T14:49:03.908Z,100691.09
2019-03-24T14:51:33.982Z,100675.05
2019-03-24T14:54:04.022Z,100673.34
2019-03-24T14:56:34.213Z,100671.66
2019-03-24T14:59:04.183Z,100672.61
2019-03-24T15:01:34.232Z,100661.45
2019-03-24T15:04:04.467Z,100665.66
2019-03-24T15:06:34.538Z,100666.66
2019-03-24T15:09:07.689Z,100661.41
2019-03-24T15:11:38.016Z,100663.06
2019-03-24T15:14:08.107Z,100664.91
2019-03-24T15:16:38.196Z,100665.77
2019-03-24T15:19:08.353Z,100649.76
2019-03-24T15:21:38.567Z,100656.70
2019-03-24T15:24:08.704Z,100648.80
2019-03-24T15:26:38.938Z,100650.87
2019-03-24T15:29:09.152Z,100634.86
2019-03-24T15:31:39.228Z,100638.42
2019-03-24T15:34:09.464Z,100635.22
2019-03-24T15:36:39.502Z,100619.38
2019-03-24T15:39:10.439Z,100617.50
2019-03-24T15:41:40.524Z,100621.06
2019-03-24T15:44:10.549Z,100617.00
2019-03-24T15:46:40.607Z,100620.07
2019-03-24T15:49:10.817Z,100605.21
2019-03-24T15:51:40.906Z,100612.95
2019-03-24T15:54:13.324Z,100613.13
2019-03-24T15:56:42.795Z,100603.11
2019-03-24T15:59:12.842Z,100617.25
2019-03-24T16:01:42.886Z,100611.65
2019-03-24T16:04:12.978Z,100629.01
2019-03-24T16:06:43.180Z,100623.91
2019-03-24T16:09:13.338Z,100615.97
2019-03-24T16:11:43.546Z,100616.47
2019-03-24T16:14:13.677Z,100608.50
2019-03-24T16:16:43.743Z,100622.16
2019-03-24T16:19:13.822Z,100619.63
2019-03-24T16:21:43.969Z,100616.07
2019-03-24T16:24:13.984Z,100609.45
2019-03-24T16:26:44.140Z,100607.41
2019-03-24T16:29:14.246Z,100612.16
2019-03-24T16:31:44.333Z,100600.50
2019-03-24T16:34:14.543Z,100601.84
2019-03-24T16:36:44.584Z,100600.00
2019-03-24T16:39:15.282Z,100595.63
2019-03-24T16:41:45.358Z,100586.17
2019-03-24T16:44:15.395Z,100592.06
2019-03-24T16:46:45.460Z,100583.48
2019-03-24T16:49:15.520Z,100579.56
2019-03-24T16:51:45.637Z,100571.76
2019-03-24T16:54:15.753Z,100562.47
2019-03-24T16:56:45.831Z,100568.37
2019-03-24T16:59:15.929Z,100569.03
2019-03-24T17:01:46.508Z,100573.23
2019-03-24T17:04:16.596Z,100574.23
2019-03-24T17:06:46.692Z,100575.39
2019-03-24T17:09:16.903Z,100571.14
2019-03-24T17:11:47.007Z,100571.63
2019-03-24T17:14:17.178Z,100573.15
2019-03-24T17:16:47.332Z,100568.24
2019-03-24T17:19:17.372Z,100566.89
2019-03-24T17:21:50.117Z,100568.73
2019-03-24T17:24:19.380Z,100568.05
2019-03-24T17:26:49.467Z,100559.09
2019-03-24T17:29:19.632Z,100565.34
2019-03-24T17:31:49.811Z,100562.78
2019-03-24T17:34:19.816Z,100561.43
2019-03-24T17:36:50.048Z,100551.66
2019-03-24T17:39:20.208Z,100545.77
2019-03-24T17:41:51.779Z,100548.95
2019-03-24T17:44:22.130Z,100545.77
2019-03-24T17:46:54.526Z,100541.35
2019-03-24T17:49:24.609Z,100535.46
2019-03-24T17:52:00.629Z,100542.70
2019-03-24T17:54:28.033Z,100536.12
2019-03-24T17:56:59.379Z,100534.77
2019-03-24T17:59:29.821Z,100530.20
2019-03-24T18:02:00.449Z,100518.58
2019-03-24T18:04:30.651Z,100518.22
2019-03-24T18:07:01.027Z,100507.06
2019-03-24T18:09:31.139Z,100515.16
2019-03-24T18:12:01.311Z,100515.16
2019-03-24T18:14:31.496Z,100518.34
2019-03-24T18:17:01.737Z,100514.30
2019-03-24T18:19:31.856Z,100518.34
2019-03-24T18:22:11.303Z,100510.78
2019-03-24T18:24:34.229Z,100508.58
2019-03-24T18:27:04.562Z,100505.37
2019-03-24T18:29:34.844Z,100505.88
2019-03-24T18:32:05.090Z,100499.62
2019-03-24T18:34:35.267Z,100504.52
2019-03-24T18:37:05.490Z,100506.73
2019-03-24T18:39:35.618Z,100510.78
2019-03-24T18:42:05.840Z,100509.92
2019-03-24T18:44:35.874Z,100512.45
2019-03-24T18:47:06.225Z,100504.86
2019-03-24T18:49:36.284Z,100497.61
2019-03-24T18:52:06.448Z,100500.31
2019-03-24T18:54:36.784Z,100494.91
2019-03-24T18:57:06.957Z,100489.52
2019-03-24T18:59:37.089Z,100485.47
2019-03-24T19:02:07.245Z,100485.14
2019-03-24T19:04:38.376Z,100484.61
2019-03-24T19:07:08.690Z,100488.83
2019-03-24T19:09:38.736Z,100487.84
2019-03-24T19:12:08.889Z,100486.81
2019-03-24T19:14:40.197Z,100482.44
2019-03-24T19:17:10.370Z,100477.23
2019-03-24T19:19:40.526Z,100469.77
2019-03-24T19:22:10.663Z,100472.47
2019-03-24T19:24:40.745Z,100473.33
2019-03-24T19:27:10.927Z,100461.84
2019-03-24T19:29:41.067Z,100463.19
2019-03-24T19:32:11.151Z,100460.13
2019-03-24T19:34:41.307Z,100456.44
2019-03-24T19:37:11.523Z,100461.48
2019-03-24T19:39:41.652Z,100457.44
2019-03-24T19:42:11.775Z,100455.27
2019-03-24T19:44:41.942Z,100460.13
2019-03-24T19:47:12.260Z,100460.98
2019-03-24T19:49:42.354Z,100460.13
2019-03-24T19:52:12.500Z,100448.52
2019-03-24T19:54:42.669Z,100441.59
2019-03-24T19:57:12.781Z,100434.50
2019-03-24T19:59:42.944Z,100431.30
2019-03-24T20:02:13.113Z,100429.09
2019-03-24T20:04:43.211Z,100440.25
2019-03-24T20:07:13.319Z,100441.59
2019-03-24T20:09:43.403Z,100445.16
2019-03-24T20:12:15.862Z,100444.30
2019-03-24T20:14:45.442Z,100444.30
2019-03-24T20:17:18.674Z,100440.25
2019-03-24T20:19:49.069Z,100433.50
2019-03-24T20:22:19.336Z,100422.34
2019-03-24T20:24:51.225Z,100426.07
2019-03-24T20:27:21.312Z,100425.71
2019-03-24T20:29:51.464Z,100417.61
2019-03-24T20:32:22.958Z,100420.67
2019-03-24T20:34:53.088Z,100415.96
2019-03-24T20:37:26.030Z,100424.42
2019-03-24T20:39:56.297Z,100419.02
2019-03-24T20:42:28.860Z,100419.84
2019-03-24T20:44:59.028Z,100415.30
2019-03-24T20:47:29.335Z,100413.09
2019-03-24T20:49:59.406Z,100210.14
2019-03-24T20:52:29.566Z,100398.78
2019-03-24T20:54:59.817Z,100398.42
2019-03-24T20:57:30.011Z,100397.23
2019-03-24T21:00:00.368Z,100396.71
2019-03-24T21:02:33.402Z,100394.38
2019-03-24T21:05:04.871Z,100397.07
2019-03-24T21:07:35.010Z,100393.52
2019-03-24T21:10:09.420Z,100387.93
2019-03-24T21:12:39.798Z,100391.98
2019-03-24T21:15:11.685Z,100392.64
2019-03-24T21:17:42.061Z,100389.75
2019-03-24T21:20:12.602Z,100391.27
2019-03-24T21:22:42.718Z,100385.02
2019-03-24T21:25:13.069Z,100384.66
2019-03-24T21:27:47.743Z,100382.13
2019-03-24T21:30:19.421Z,100376.37
2019-03-24T21:32:51.549Z,100378.22
2019-03-24T21:35:21.767Z,100382.76
2019-03-24T21:37:52.012Z,100381.08
2019-03-24T21:40:22.306Z,100382.44
2019-03-24T21:42:52.498Z,100376.02
2019-03-24T21:45:22.644Z,100367.09
2019-03-24T21:47:52.774Z,100357.12
2019-03-24T21:50:22.857Z,100357.66
2019-03-24T21:52:54.037Z,100357.66
2019-03-24T21:55:24.078Z,100355.95
2019-03-24T21:57:57.708Z,100357.79
2019-03-24T22:00:38.165Z,100365.03
2019-03-24T22:03:09.391Z,100370.59
2019-03-24T22:05:39.567Z,100361.28
2019-03-24T22:08:09.810Z,100353.69
2019-03-24T22:10:39.819Z,100348.78
2019-03-24T22:13:09.940Z,100354.67
2019-03-24T22:15:40.018Z,100349.28
2019-03-24T22:18:10.186Z,100353.00
2019-03-24T22:20:48.919Z,100352.64
2019-03-24T22:23:12.242Z,100349.45
2019-03-24T22:25:42.356Z,100352.64
2019-03-24T22:28:12.369Z,100361.59
2019-03-24T22:30:42.417Z,100349.09
2019-03-24T22:33:12.563Z,100351.30
2019-03-24T22:35:42.634Z,100335.11
2019-03-24T22:38:12.643Z,100321.62
2019-03-24T22:40:42.720Z,100318.92
2019-03-24T22:43:12.742Z,100314.52
2019-03-24T22:45:42.916Z,100323.27
2019-03-24T22:48:13.017Z,100320.58
2019-03-24T22:50:43.106Z,100327.67
2019-03-24T22:53:13.291Z,100320.94
2019-03-24T22:55:43.320Z,100317.38
2019-03-24T22:58:13.420Z,100320.58
2019-03-24T23:00:54.030Z,100317.55
2019-03-24T23:03:25.514Z,100314.85
2019-03-24T23:05:56.078Z,100312.29
2019-03-24T23:08:26.176Z,100305.72
2019-03-24T23:10:56.235Z,100309.05
2019-03-24T23:13:26.283Z,100305.16
2019-03-24T23:15:56.345Z,100308.86
2019-03-24T23:18:26.442Z,100305.83
2019-03-24T23:20:56.632Z,100303.27
2019-03-24T23:23:26.748Z,100302.94
2019-03-24T23:25:56.870Z,100310.02
2019-03-24T23:28:26.941Z,100302.94
2019-03-24T23:30:56.958Z,100296.86
2019-03-24T23:33:26.982Z,100289.27
2019-03-24T23:35:57.181Z,100295.65
2019-03-24T23:38:27.228Z,100297.48
2019-03-24T23:40:57.368Z,100304.23
2019-03-24T23:43:27.483Z,100297.66
2019-03-24T23:45:57.536Z,100296.80
2019-03-24T23:48:27.555Z,100293.12
2019-03-24T23:50:57.619Z,100286.88
2019-03-24T23:53:27.636Z,100289.08
2019-03-24T23:55:57.724Z,100287.37
2019-03-24T23:58:39.975Z,100276.94
